Portada
METAR-TAF:

METAR-TAF

Aeroports :

Caracas, Veneçuela

Aeroport Internacional Maiquetía Simón Bolívar

latitud: 10-36N, longitud: 066-59W, altitud: 43 m

Observació

L'informe es va fer fa 53 minuts, a les 08:00 UTC
Vent 2 kt del Nord
Temperatura 23°C
Humitat 78%
Pressió 1011 hPa
Visibilitat 10 km o més
Escasses núvols a una alçada de 1600 ft

METAR: SVMI 200800Z 36002KT 9999 FEW016 23/19 Q1011

Hora: 04:53 (08:53 UTC)

Pronòstic

L'informe es va fer fa 4 hores i 53 minuts, a les 04:00 UTC
Pronòstic vàlid del 20 a les 06 UTC al 21 a les 06 UTC
Vent 10 kt del Est
Visibilitat 10 km o més
Escasses núvols a una alçada de 1600 ft
Evolucionant progressivament
l' 20 a les 06 UTC al 20 a les 10 UTC
Vent 8 kt del Est/Nord-Est
Núvols disperses a una alçada de 1300 ft

TAF: SVMI 200400Z 2006/2106 09010KT 9999 FEW016 TX33/19Z TN24/09Z BECMG 2006/2010 07008KT SCT013

Observacions i pronòstics meteorològics de més de 4000 aeroports (METAR i TAF).

Les estacions disponibles són els punts grocs i vermells al mapa.

Posi el ratolí al punt desitjat per veure el nom de l'estació.

Feu clic per veure les observacions i els pronòstics meteorològics.

Per canviar el mapa: feu clic els botons verds amb una creu de color negre per apropar; al botó verd amb un guió per allunyar la imatge; o en les fletxes verdes per a mapes adjacents.


METAR-TAF: